createdAt,value
2023-01-26T00:01:13.660Z,0.26
2023-01-26T00:03:40.667Z,0.22
2023-01-26T00:06:10.690Z,0.26
2023-01-26T00:08:38.841Z,0.21
2023-01-26T00:11:07.018Z,0.19
2023-01-26T00:13:34.150Z,0.16
2023-01-26T00:16:01.749Z,0.18
2023-01-26T00:18:29.273Z,0.14
2023-01-26T00:20:57.997Z,0.13
2023-01-26T00:23:25.639Z,0.10
2023-01-26T00:25:52.250Z,0.09
2023-01-26T00:28:18.931Z,0.06
2023-01-26T00:30:48.814Z,0.06
2023-01-26T00:33:18.818Z,0.05
2023-01-26T00:35:54.211Z,0.03
2023-01-26T00:38:20.815Z,0.05
2023-01-26T00:40:47.394Z,0.03
2023-01-26T00:43:14.229Z,0.04
2023-01-26T00:45:40.902Z,0.04
2023-01-26T00:48:07.588Z,0.08
2023-01-26T00:50:34.227Z,0.08
2023-01-26T00:53:00.983Z,0.05
2023-01-26T00:55:32.418Z,0.02
2023-01-26T00:58:02.381Z,-0.01
2023-01-26T01:00:29.401Z,0.05
2023-01-26T01:02:57.208Z,0.08
2023-01-26T01:05:25.009Z,0.04
2023-01-26T01:07:51.771Z,-0.01
2023-01-26T01:10:18.655Z,0.01
2023-01-26T01:12:45.994Z,-0.04
2023-01-26T01:15:12.891Z,-0.02
2023-01-26T01:17:40.028Z,-0.03
2023-01-26T01:20:09.536Z,-0.02
2023-01-26T01:22:36.856Z,-0.03
2023-01-26T01:25:04.191Z,0.00
2023-01-26T01:27:30.757Z,0.03
2023-01-26T01:29:57.298Z,-0.06
2023-01-26T01:32:24.025Z,-0.08
2023-01-26T01:34:50.668Z,-0.04
2023-01-26T01:37:17.686Z,-0.04
2023-01-26T01:39:44.315Z,0.01
2023-01-26T01:42:11.063Z,0.02
2023-01-26T01:44:39.142Z,0.01
2023-01-26T01:47:13.276Z,0.00
2023-01-26T01:49:50.952Z,-0.05
2023-01-26T01:52:28.963Z,-0.08
2023-01-26T01:54:59.696Z,-0.09
2023-01-26T01:57:31.875Z,-0.10
2023-01-26T02:00:05.347Z,-0.10
2023-01-26T02:02:32.045Z,-0.02
2023-01-26T02:05:07.313Z,-0.02
2023-01-26T02:07:33.985Z,0.03
2023-01-26T02:10:16.988Z,0.03
2023-01-26T02:12:43.925Z,0.04
2023-01-26T02:15:11.389Z,0.05
2023-01-26T02:17:39.766Z,0.08
2023-01-26T02:20:34.346Z,0.06
2023-01-26T02:23:10.744Z,0.04
2023-01-26T02:25:44.368Z,0.05
2023-01-26T02:28:10.982Z,0.03
2023-01-26T02:30:37.605Z,0.00
2023-01-26T02:33:04.242Z,0.02
2023-01-26T02:35:30.963Z,0.03
2023-01-26T02:37:57.959Z,-0.01
2023-01-26T02:40:31.140Z,0.00
2023-01-26T02:42:57.682Z,-0.02
2023-01-26T02:45:26.415Z,-0.01
2023-01-26T02:47:53.020Z,-0.02
2023-01-26T02:50:19.727Z,-0.01
2023-01-26T02:52:46.324Z,-0.01
2023-01-26T02:55:28.300Z,-0.01
2023-01-26T02:58:00.432Z,-0.02
2023-01-26T03:00:31.095Z,0.00
2023-01-26T03:03:00.715Z,-0.04
2023-01-26T03:05:28.376Z,-0.05
2023-01-26T03:07:55.372Z,-0.01
2023-01-26T03:10:24.216Z,0.01
2023-01-26T03:12:50.901Z,0.02
2023-01-26T03:15:32.802Z,0.02
2023-01-26T03:18:20.201Z,-0.04
2023-01-26T03:21:02.010Z,-0.09
2023-01-26T03:23:43.817Z,-0.09
2023-01-26T03:26:26.070Z,-0.10
2023-01-26T03:28:52.645Z,-0.12
2023-01-26T03:31:19.251Z,-0.17
2023-01-26T03:33:45.832Z,-0.19
2023-01-26T03:36:12.387Z,-0.22
2023-01-26T03:38:38.912Z,-0.26
2023-01-26T03:41:20.819Z,-0.23
2023-01-26T03:44:02.593Z,-0.22
2023-01-26T03:46:44.694Z,-0.24
2023-01-26T03:49:26.680Z,-0.19
2023-01-26T03:52:08.515Z,-0.19
2023-01-26T03:54:50.259Z,-0.14
2023-01-26T03:57:17.108Z,-0.18
2023-01-26T03:59:44.236Z,-0.22
2023-01-26T04:02:27.789Z,-0.23
2023-01-26T04:05:09.810Z,-0.26
2023-01-26T04:07:51.882Z,-0.27
2023-01-26T04:10:18.510Z,-0.24
2023-01-26T04:12:45.098Z,-0.21
2023-01-26T04:15:27.015Z,-0.20
2023-01-26T04:18:08.810Z,-0.19
2023-01-26T04:20:50.620Z,-0.23
2023-01-26T04:23:19.560Z,-0.27
2023-01-26T04:25:47.851Z,-0.30
2023-01-26T04:28:14.594Z,-0.30
2023-01-26T04:30:41.321Z,-0.35
2023-01-26T04:33:11.135Z,-0.32
2023-01-26T04:35:40.977Z,-0.35
2023-01-26T04:38:07.524Z,-0.32
2023-01-26T04:40:34.117Z,-0.27
2023-01-26T04:43:00.664Z,-0.23
2023-01-26T04:45:27.232Z,-0.24
2023-01-26T04:47:53.778Z,-0.26
2023-01-26T04:50:20.402Z,-0.25
2023-01-26T04:52:46.974Z,-0.28
2023-01-26T04:55:13.595Z,-0.27
2023-01-26T04:57:40.225Z,-0.28
2023-01-26T05:00:08.799Z,-0.29
2023-01-26T05:02:35.501Z,-0.32
2023-01-26T05:05:02.188Z,-0.37
2023-01-26T05:07:28.767Z,-0.37
2023-01-26T05:09:55.769Z,-0.35
2023-01-26T05:12:37.665Z,-0.40
2023-01-26T05:15:04.598Z,-0.43
2023-01-26T05:17:31.244Z,-0.39
2023-01-26T05:19:57.817Z,-0.41
2023-01-26T05:22:24.477Z,-0.36
2023-01-26T05:24:51.080Z,-0.37
2023-01-26T05:27:24.861Z,-0.35
2023-01-26T05:29:52.310Z,-0.38
2023-01-26T05:32:19.304Z,-0.44
2023-01-26T05:34:46.248Z,-0.44
2023-01-26T05:37:14.759Z,-0.44
2023-01-26T05:39:42.093Z,-0.44
2023-01-26T05:42:08.833Z,-0.44
2023-01-26T05:44:35.439Z,-0.46
2023-01-26T05:47:02.071Z,-0.48
2023-01-26T05:49:28.816Z,-0.48
2023-01-26T05:51:55.443Z,-0.52
2023-01-26T05:54:22.083Z,-0.50
2023-01-26T05:56:48.711Z,-0.50
2023-01-26T05:59:15.317Z,-0.48
2023-01-26T06:01:41.995Z,-0.51
2023-01-26T06:04:08.723Z,-0.58
2023-01-26T06:06:35.353Z,-0.57
2023-01-26T06:09:01.942Z,-0.47
2023-01-26T06:11:28.512Z,-0.45
2023-01-26T06:13:55.194Z,-0.51
2023-01-26T06:16:21.849Z,-0.49
2023-01-26T06:18:50.104Z,-0.50
2023-01-26T06:21:17.003Z,-0.53
2023-01-26T06:23:43.843Z,-0.51
2023-01-26T06:26:11.001Z,-0.35
2023-01-26T06:28:37.616Z,-0.25
2023-01-26T06:31:06.461Z,-0.30
2023-01-26T06:33:35.193Z,-0.29
2023-01-26T06:36:03.498Z,-0.25
2023-01-26T06:38:30.415Z,-0.38
2023-01-26T06:41:03.085Z,-0.37
2023-01-26T06:43:31.240Z,-0.37
2023-01-26T06:45:58.535Z,-0.44
2023-01-26T06:48:26.035Z,-0.47
2023-01-26T06:50:53.383Z,-0.49
2023-01-26T06:53:33.430Z,-0.49
2023-01-26T06:56:00.265Z,-0.50
2023-01-26T06:58:26.885Z,-0.51
2023-01-26T07:00:53.653Z,-0.46
2023-01-26T07:03:20.241Z,-0.46
2023-01-26T07:05:46.843Z,-0.49
2023-01-26T07:08:13.625Z,-0.47
2023-01-26T07:10:40.192Z,-0.46
2023-01-26T07:13:07.422Z,-0.46
2023-01-26T07:15:34.063Z,-0.44
2023-01-26T07:18:01.040Z,-0.46
2023-01-26T07:20:27.915Z,-0.51
2023-01-26T07:22:54.538Z,-0.30
2023-01-26T07:25:21.213Z,-0.38
2023-01-26T07:27:47.785Z,-0.46
2023-01-26T07:30:14.695Z,-0.47
2023-01-26T07:32:41.385Z,-0.31
2023-01-26T07:35:08.348Z,-0.39
2023-01-26T07:37:34.947Z,-0.48
2023-01-26T07:40:01.632Z,-0.48
2023-01-26T07:42:29.094Z,-0.40
2023-01-26T07:44:55.644Z,-0.45
2023-01-26T07:47:22.201Z,-0.46
2023-01-26T07:49:48.766Z,-0.44
2023-01-26T07:52:15.297Z,-0.32
2023-01-26T07:54:41.879Z,-0.24
2023-01-26T07:57:08.404Z,-0.37
2023-01-26T07:59:35.745Z,-0.34
2023-01-26T08:02:02.346Z,-0.39
2023-01-26T08:04:29.023Z,-0.48
2023-01-26T08:06:55.632Z,-0.51
2023-01-26T08:09:22.416Z,-0.55
2023-01-26T08:11:49.076Z,-0.35
2023-01-26T08:14:15.725Z,-0.44
2023-01-26T08:16:42.432Z,-0.40
2023-01-26T08:19:09.035Z,-0.39
2023-01-26T08:21:35.642Z,-0.41
2023-01-26T08:24:03.528Z,-0.40
2023-01-26T08:26:30.292Z,-0.40
2023-01-26T08:28:57.086Z,-0.37
2023-01-26T08:31:25.399Z,-0.41
2023-01-26T08:33:55.908Z,-0.39
2023-01-26T08:36:25.807Z,-0.25
2023-01-26T08:38:52.610Z,-0.03
2023-01-26T08:41:19.283Z,-0.19
2023-01-26T08:43:45.908Z,-0.34
2023-01-26T08:46:12.704Z,-0.42
2023-01-26T08:48:39.322Z,-0.45
2023-01-26T08:51:07.600Z,-0.46
2023-01-26T08:53:36.067Z,-0.43
2023-01-26T08:56:04.943Z,-0.45
2023-01-26T08:58:32.706Z,-0.45
2023-01-26T09:00:59.891Z,-0.43
2023-01-26T09:03:26.536Z,-0.44
2023-01-26T09:05:53.137Z,-0.46
2023-01-26T09:08:19.731Z,-0.25
2023-01-26T09:10:46.333Z,-0.28
2023-01-26T09:13:12.935Z,-0.37
2023-01-26T09:15:39.552Z,-0.39
2023-01-26T09:18:06.397Z,-0.40
2023-01-26T09:20:32.971Z,-0.35
2023-01-26T09:22:59.521Z,-0.17
2023-01-26T09:25:26.183Z,-0.05
2023-01-26T09:27:52.792Z,0.06
2023-01-26T09:30:19.472Z,-0.08
2023-01-26T09:32:46.101Z,-0.03
2023-01-26T09:35:14.599Z,-0.12
2023-01-26T09:37:43.454Z,-0.10
2023-01-26T09:40:18.372Z,-0.19
2023-01-26T09:43:12.720Z,-0.12
2023-01-26T09:45:51.145Z,-0.09
2023-01-26T09:48:37.873Z,-0.27
2023-01-26T09:51:12.230Z,-0.33
2023-01-26T09:53:39.947Z,-0.43
2023-01-26T09:56:08.420Z,-0.47
2023-01-26T09:58:40.669Z,-0.47
2023-01-26T10:01:18.332Z,-0.46
2023-01-26T10:03:58.632Z,-0.51
2023-01-26T10:06:29.577Z,-0.42
2023-01-26T10:09:00.610Z,-0.48
2023-01-26T10:11:32.385Z,-0.54
2023-01-26T10:14:19.369Z,-0.52
2023-01-26T10:16:48.824Z,-0.50
2023-01-26T10:19:31.587Z,-0.49
2023-01-26T10:22:03.721Z,-0.44
2023-01-26T10:24:32.846Z,-0.46
2023-01-26T10:27:00.220Z,-0.51
2023-01-26T10:29:26.745Z,-0.42
2023-01-26T10:31:55.185Z,-0.43
2023-01-26T10:34:26.116Z,-0.29
2023-01-26T10:37:01.915Z,-0.34
2023-01-26T10:39:28.523Z,-0.32
2023-01-26T10:42:01.233Z,-0.33
2023-01-26T10:44:38.579Z,-0.28
2023-01-26T10:47:22.190Z,-0.27
2023-01-26T10:49:49.208Z,-0.29
2023-01-26T10:52:19.333Z,-0.27
2023-01-26T10:54:46.553Z,-0.30
2023-01-26T10:57:29.617Z,-0.28
2023-01-26T10:59:59.075Z,-0.28
2023-01-26T11:02:28.661Z,-0.25
2023-01-26T11:05:18.319Z,-0.23
2023-01-26T11:07:48.202Z,-0.27
2023-01-26T11:10:31.882Z,-0.32
2023-01-26T11:13:07.754Z,-0.28
2023-01-26T11:15:39.608Z,-0.20
2023-01-26T11:18:22.627Z,-0.20
2023-01-26T11:21:06.611Z,-0.21
2023-01-26T11:23:46.106Z,-0.21
2023-01-26T11:26:22.559Z,-0.05
2023-01-26T11:28:58.341Z,-0.09
2023-01-26T11:31:40.754Z,-0.19
2023-01-26T11:34:22.605Z,-0.22
2023-01-26T11:37:17.218Z,-0.23
2023-01-26T11:39:56.618Z,-0.25
2023-01-26T11:42:23.166Z,-0.11
2023-01-26T11:45:14.409Z,-0.29
2023-01-26T11:47:57.261Z,-0.34
2023-01-26T11:50:39.254Z,-0.39
2023-01-26T11:53:36.413Z,-0.32
2023-01-26T11:56:18.363Z,-0.33
2023-01-26T11:58:55.990Z,-0.31
2023-01-26T12:01:29.024Z,-0.16
2023-01-26T12:03:57.057Z,-0.30
2023-01-26T12:06:24.597Z,-0.25
2023-01-26T12:08:56.432Z,-0.08
2023-01-26T12:11:30.048Z,-0.08
2023-01-26T12:14:05.584Z,-0.12
2023-01-26T12:16:43.096Z,-0.31
2023-01-26T12:19:28.596Z,-0.16
2023-01-26T12:22:00.683Z,-0.12
2023-01-26T12:25:08.322Z,-0.18
2023-01-26T12:27:34.997Z,-0.12
2023-01-26T12:30:17.725Z,-0.07
2023-01-26T12:32:44.434Z,-0.15
2023-01-26T12:35:12.803Z,-0.25
2023-01-26T12:37:48.036Z,-0.12
2023-01-26T12:40:23.285Z,-0.20
2023-01-26T12:43:07.700Z,-0.22
2023-01-26T12:45:40.204Z,-0.20
2023-01-26T12:48:26.861Z,-0.30
2023-01-26T12:51:02.157Z,-0.28
2023-01-26T12:53:33.912Z,-0.39
2023-01-26T12:56:20.348Z,-0.29
2023-01-26T12:58:50.201Z,-0.38
2023-01-26T13:01:20.747Z,-0.44
2023-01-26T13:04:06.636Z,-0.32
2023-01-26T13:06:33.220Z,-0.26
2023-01-26T13:09:17.831Z,-0.19
2023-01-26T13:11:49.375Z,-0.23
2023-01-26T13:14:30.475Z,-0.12
2023-01-26T13:16:58.673Z,-0.10
2023-01-26T13:19:52.659Z,-0.07
2023-01-26T13:22:19.325Z,-0.07
2023-01-26T13:24:48.791Z,-0.12
2023-01-26T13:27:30.572Z,-0.08
2023-01-26T13:29:57.323Z,-0.05
2023-01-26T13:32:23.880Z,-0.04
2023-01-26T13:34:57.858Z,-0.03
2023-01-26T13:37:34.554Z,-0.11
2023-01-26T13:40:06.218Z,-0.27
2023-01-26T13:42:50.446Z,-0.14
2023-01-26T13:45:27.300Z,-0.23
2023-01-26T13:47:54.344Z,-0.34
2023-01-26T13:50:34.871Z,-0.12
2023-01-26T13:53:01.443Z,-0.09
2023-01-26T13:55:31.524Z,-0.02
2023-01-26T13:58:13.961Z,-0.07
2023-01-26T14:00:40.637Z,-0.04
2023-01-26T14:03:22.194Z,-0.06
2023-01-26T14:05:56.171Z,-0.01
2023-01-26T14:08:23.793Z,0.03
2023-01-26T14:10:51.926Z,-0.03
2023-01-26T14:13:36.268Z,-0.02
2023-01-26T14:16:08.049Z,-0.12
2023-01-26T14:18:34.640Z,-0.08
2023-01-26T14:21:05.181Z,-0.14
2023-01-26T14:23:36.866Z,-0.12
2023-01-26T14:26:04.886Z,-0.12
2023-01-26T14:28:35.205Z,-0.11
2023-01-26T14:31:20.068Z,-0.11
2023-01-26T14:33:48.722Z,-0.04
2023-01-26T14:36:18.690Z,-0.07
2023-01-26T14:38:47.757Z,-0.07
2023-01-26T14:41:23.382Z,-0.10
2023-01-26T14:43:55.526Z,-0.10
2023-01-26T14:46:25.900Z,-0.14
2023-01-26T14:48:59.283Z,-0.13
2023-01-26T14:51:27.434Z,-0.02
2023-01-26T14:53:58.965Z,-0.07
2023-01-26T14:56:33.426Z,-0.16
2023-01-26T14:59:00.786Z,-0.11
2023-01-26T15:01:29.038Z,-0.21
2023-01-26T15:04:01.362Z,-0.25
2023-01-26T15:06:30.357Z,-0.15
2023-01-26T15:09:01.195Z,-0.04
2023-01-26T15:11:48.265Z,-0.03
2023-01-26T15:14:35.084Z,-0.14
2023-01-26T15:17:02.334Z,-0.18
2023-01-26T15:19:39.365Z,-0.14
2023-01-26T15:22:16.802Z,-0.09
2023-01-26T15:24:45.024Z,-0.15
2023-01-26T15:27:12.336Z,-0.04
2023-01-26T15:29:39.294Z,-0.10
2023-01-26T15:32:06.020Z,-0.20
2023-01-26T15:34:36.348Z,-0.16
2023-01-26T15:37:32.107Z,-0.02
2023-01-26T15:39:58.785Z,0.13
2023-01-26T15:42:28.964Z,0.20
2023-01-26T15:44:56.443Z,0.19
2023-01-26T15:47:23.141Z,0.15
2023-01-26T15:49:49.812Z,0.10
2023-01-26T15:52:20.570Z,0.05
2023-01-26T15:54:47.362Z,0.06
2023-01-26T15:57:14.271Z,-0.14
2023-01-26T15:59:41.296Z,-0.12
2023-01-26T16:02:23.205Z,-0.11
2023-01-26T16:04:49.839Z,-0.03
2023-01-26T16:07:18.344Z,-0.06
2023-01-26T16:09:45.394Z,-0.10
2023-01-26T16:12:31.248Z,-0.15
2023-01-26T16:14:58.754Z,-0.19
2023-01-26T16:17:25.397Z,-0.15
2023-01-26T16:19:52.026Z,-0.21
2023-01-26T16:22:18.704Z,-0.22
2023-01-26T16:24:46.731Z,-0.20
2023-01-26T16:27:13.400Z,-0.19
2023-01-26T16:29:40.053Z,-0.19
2023-01-26T16:32:28.010Z,-0.16
2023-01-26T16:34:54.795Z,-0.18
2023-01-26T16:37:21.416Z,-0.15
2023-01-26T16:39:51.383Z,-0.18
2023-01-26T16:42:20.137Z,-0.23
2023-01-26T16:44:47.724Z,-0.22
2023-01-26T16:47:14.304Z,-0.23
2023-01-26T16:49:40.911Z,-0.29
2023-01-26T16:52:08.927Z,-0.27
2023-01-26T16:54:35.549Z,-0.45
2023-01-26T16:57:02.265Z,-0.50
2023-01-26T16:59:28.826Z,-0.45
2023-01-26T17:01:55.461Z,-0.41
2023-01-26T17:04:22.097Z,-0.34
2023-01-26T17:06:48.816Z,-0.32
2023-01-26T17:09:15.499Z,-0.27
2023-01-26T17:11:42.120Z,-0.25
2023-01-26T17:14:11.580Z,-0.29
2023-01-26T17:16:38.365Z,-0.42
2023-01-26T17:19:06.228Z,-0.44
2023-01-26T17:21:34.461Z,-0.41
2023-01-26T17:24:01.109Z,-0.51
2023-01-26T17:26:27.709Z,-0.53
2023-01-26T17:28:55.562Z,-0.51
2023-01-26T17:31:23.546Z,-0.56
2023-01-26T17:33:51.139Z,-0.57
2023-01-26T17:36:19.175Z,-0.54
2023-01-26T17:38:47.135Z,-0.52
2023-01-26T17:41:13.786Z,-0.51
2023-01-26T17:43:40.364Z,-0.52
2023-01-26T17:46:10.752Z,-0.38
2023-01-26T17:48:37.748Z,-0.40
2023-01-26T17:51:08.035Z,-0.40
2023-01-26T17:53:39.955Z,-0.20
2023-01-26T17:56:08.741Z,-0.23
2023-01-26T17:58:36.910Z,-0.17
2023-01-26T18:01:04.971Z,-0.15
2023-01-26T18:03:31.806Z,-0.23
2023-01-26T18:05:58.782Z,-0.31
2023-01-26T18:08:26.182Z,-0.36
2023-01-26T18:11:02.214Z,-0.28
2023-01-26T18:13:30.387Z,-0.26
2023-01-26T18:15:57.016Z,-0.25
2023-01-26T18:18:24.799Z,-0.27
2023-01-26T18:20:51.845Z,-0.33
2023-01-26T18:23:19.217Z,-0.34
2023-01-26T18:25:46.223Z,-0.34
2023-01-26T18:28:14.341Z,-0.35
2023-01-26T18:30:41.184Z,-0.40
2023-01-26T18:33:08.810Z,-0.39
2023-01-26T18:35:36.001Z,-0.34
2023-01-26T18:38:03.259Z,-0.21
2023-01-26T18:40:30.758Z,-0.24
2023-01-26T18:42:57.690Z,-0.17
2023-01-26T18:45:24.971Z,-0.25
2023-01-26T18:47:51.586Z,-0.38
2023-01-26T18:50:18.515Z,-0.35
2023-01-26T18:52:45.118Z,-0.41
2023-01-26T18:55:12.651Z,-0.35
2023-01-26T18:57:39.389Z,-0.41
2023-01-26T19:00:08.221Z,-0.48
2023-01-26T19:02:38.964Z,-0.44
2023-01-26T19:05:07.510Z,-0.51
2023-01-26T19:07:34.603Z,-0.53
2023-01-26T19:10:01.217Z,-0.58
2023-01-26T19:12:27.836Z,-0.57
2023-01-26T19:14:54.472Z,-0.54
2023-01-26T19:17:21.065Z,-0.45
2023-01-26T19:19:47.691Z,-0.51
2023-01-26T19:22:14.347Z,-0.44
2023-01-26T19:24:42.960Z,-0.51
2023-01-26T19:27:10.529Z,-0.53
2023-01-26T19:29:37.145Z,-0.51
2023-01-26T19:32:03.932Z,-0.49
2023-01-26T19:34:31.991Z,-0.42
2023-01-26T19:36:58.567Z,-0.39
2023-01-26T19:39:25.199Z,-0.28
2023-01-26T19:41:52.460Z,-0.31
2023-01-26T19:44:19.276Z,-0.38
2023-01-26T19:46:45.928Z,-0.43
2023-01-26T19:49:13.545Z,-0.47
2023-01-26T19:51:40.259Z,-0.43
2023-01-26T19:54:06.864Z,-0.38
2023-01-26T19:56:36.269Z,-0.44
2023-01-26T19:59:06.047Z,-0.48
2023-01-26T20:01:33.134Z,-0.47
2023-01-26T20:04:04.433Z,-0.52
2023-01-26T20:06:34.050Z,-0.51
2023-01-26T20:09:01.156Z,-0.53
2023-01-26T20:11:29.716Z,-0.52
2023-01-26T20:13:57.913Z,-0.53
2023-01-26T20:16:27.922Z,-0.47
2023-01-26T20:18:55.902Z,-0.51
2023-01-26T20:21:22.776Z,-0.51
2023-01-26T20:23:54.798Z,-0.57
2023-01-26T20:26:22.408Z,-0.50
2023-01-26T20:28:49.239Z,-0.51
2023-01-26T20:31:19.718Z,-0.42
2023-01-26T20:33:48.037Z,-0.47
2023-01-26T20:36:17.467Z,-0.51
2023-01-26T20:38:48.651Z,-0.53
2023-01-26T20:41:25.788Z,-0.52
2023-01-26T20:44:00.487Z,-0.54
2023-01-26T20:46:33.387Z,-0.51
2023-01-26T20:49:00.877Z,-0.50
2023-01-26T20:51:30.866Z,-0.51
2023-01-26T20:53:58.202Z,-0.50
2023-01-26T20:56:25.792Z,-0.46
2023-01-26T20:58:53.961Z,-0.46
2023-01-26T21:01:22.059Z,-0.48
2023-01-26T21:03:49.245Z,-0.49
2023-01-26T21:06:19.054Z,-0.47
2023-01-26T21:08:46.860Z,-0.51
2023-01-26T21:11:16.222Z,-0.48
2023-01-26T21:13:43.981Z,-0.50
2023-01-26T21:16:14.180Z,-0.48
2023-01-26T21:18:41.149Z,-0.50
2023-01-26T21:21:10.975Z,-0.50
2023-01-26T21:23:37.587Z,-0.51
2023-01-26T21:26:07.300Z,-0.53
2023-01-26T21:28:34.250Z,-0.49
2023-01-26T21:31:01.704Z,-0.49
2023-01-26T21:33:33.186Z,-0.48
2023-01-26T21:36:02.173Z,-0.45
2023-01-26T21:38:31.915Z,-0.46
2023-01-26T21:41:04.446Z,-0.44
2023-01-26T21:43:31.058Z,-0.45
2023-01-26T21:45:59.082Z,-0.46
2023-01-26T21:48:31.808Z,-0.48
2023-01-26T21:51:14.480Z,-0.41
2023-01-26T21:53:41.281Z,-0.39
2023-01-26T21:56:07.975Z,-0.43
2023-01-26T21:58:50.153Z,-0.45
2023-01-26T22:01:16.753Z,-0.49
2023-01-26T22:03:43.514Z,-0.49
2023-01-26T22:06:10.095Z,-0.42
2023-01-26T22:08:36.733Z,-0.30
2023-01-26T22:11:03.729Z,-0.37
2023-01-26T22:13:30.272Z,-0.44
2023-01-26T22:16:04.209Z,-0.44
2023-01-26T22:18:31.053Z,-0.46
2023-01-26T22:20:57.624Z,-0.49
2023-01-26T22:23:24.219Z,-0.48
2023-01-26T22:25:50.789Z,-0.50
2023-01-26T22:28:17.447Z,-0.44
2023-01-26T22:30:44.072Z,-0.35
2023-01-26T22:33:10.672Z,-0.39
2023-01-26T22:35:37.185Z,-0.45
2023-01-26T22:38:03.814Z,-0.45
2023-01-26T22:40:30.360Z,-0.46
2023-01-26T22:42:57.118Z,-0.39
2023-01-26T22:45:23.712Z,-0.43
2023-01-26T22:47:50.527Z,-0.46
2023-01-26T22:50:17.536Z,-0.32
2023-01-26T22:52:44.165Z,-0.38
2023-01-26T22:55:11.439Z,-0.39
2023-01-26T22:57:38.422Z,-0.43
2023-01-26T23:00:06.185Z,-0.44
2023-01-26T23:02:32.792Z,-0.44
2023-01-26T23:04:59.392Z,-0.46
2023-01-26T23:07:26.160Z,-0.47
2023-01-26T23:09:52.790Z,-0.42
2023-01-26T23:12:19.469Z,-0.52
2023-01-26T23:14:46.060Z,-0.53
2023-01-26T23:17:12.701Z,-0.52
2023-01-26T23:19:39.298Z,-0.56
2023-01-26T23:22:06.026Z,-0.57
2023-01-26T23:24:32.632Z,-0.60
2023-01-26T23:26:59.208Z,-0.58
2023-01-26T23:29:25.913Z,-0.60
2023-01-26T23:31:52.555Z,-0.58
2023-01-26T23:34:19.127Z,-0.57
2023-01-26T23:36:45.712Z,-0.56
2023-01-26T23:39:12.317Z,-0.55
2023-01-26T23:41:38.896Z,-0.56
2023-01-26T23:44:05.483Z,-0.56
2023-01-26T23:46:32.066Z,-0.56
2023-01-26T23:48:58.683Z,-0.56
2023-01-26T23:51:25.245Z,-0.56
2023-01-26T23:53:51.818Z,-0.56
2023-01-26T23:56:18.465Z,-0.57
2023-01-26T23:58:45.867Z,-0.60
